Pagina principale
METAR-TAF:

METAR-TAF

Aeroporti :

Aeroporto Internazionale di Gedda-Re Abd al-Aziz

Gedda, Arabia Saudita

latitudine: 21-42N, longitudine: 039-11E, altezza: 15 m

Osservazione

Il bollettino è stato emesso 16 minuti fa, alle 22:00 UTC
Vento 6 kt da nord
Temperature 24°C
Umidità 65%
Pressione 1018 hPa
Visibilità 10 km o più
Poco nuvoloso ad un'altezza di 4000 ft

METAR: OEJN 122200Z 36006KT 9999 FEW040 24/17 Q1018 NOSIG

Ora: 01:16 (22:16 UTC)

Previsione

Il bollettino è stato emesso 5 ore e 16 minuti fa, alle 17:00 UTC
Previsione valida dal 12 alle 18 UTC al 13 alle 24 UTC
Vento 8 kt da nord
Visibilità 10 km o più
Nubi sparse ad un'altezza di 4000 ft
Evoluzione graduale
dal 13 alle 06 UTC al 13 alle 08 UTC
Vento 13 kt da nord/nord-ovest

TAF: OEJN 121700Z 1218/1324 36008KT 9999 SCT040 BECMG 1306/1308 33013KT

Osservazioni e previsioni meteorologiche di più di 4000 aeroporti (messaggi METAR e TAF).

Le stazioni disponibili sono rappresentate dai dischi gialli e rossi sulla carta.

Puntare il mouse per vedere il nome della stazione.

Clicca sopra per visualizzare le osservazioni e previsioni meteorologiche.

Per cambiare la mappa : fare clic sui pulsanti verdi con una croce nera per ingrandire, il pulsante verde con un trattino per diminuire, o sulla freccia verde per le mappe adiacenti.


METAR-TAF: